Time,TemperatureF,DewpointF,PressureIn,WindDirection,WindDirectionDegrees,WindSpeedMPH,WindSpeedGustMPH,Humidity,HourlyPrecipIn,Conditions,Clouds,dailyrainin,SoftwareType,DateUTC
2014-01-02 00:06:00,-9.7,-13.4,30.53,WSW,256,0.0,0.0,83,0.00,,---,0.00,VWS V15.00,2014-01-02 06:06:00,
2014-01-02 00:11:00,-9.2,-12.9,30.52,WSW,256,0.0,0.0,83,0.00,,---,0.00,VWS V15.00,2014-01-02 06:11:00,
2014-01-02 00:16:00,-9.3,-13.1,30.52,WSW,256,0.0,0.0,83,0.00,,---,0.00,VWS V15.00,2014-01-02 06:16:00,
2014-01-02 00:21:00,-9.5,-13.5,30.52,WSW,256,0.0,0.0,82,0.00,,---,0.00,VWS V15.00,2014-01-02 06:21:00,
2014-01-02 00:26:00,-9.3,-13.1,30.52,WSW,256,0.0,0.0,83,0.00,,---,0.00,VWS V15.00,2014-01-02 06:26:00,
2014-01-02 00:31:00,-8.9,-12.7,30.52,WSW,256,0.0,0.0,83,0.00,,---,0.00,VWS V15.00,2014-01-02 06:31:00,
2014-01-02 00:41:00,-9.0,-12.8,30.52,WSW,256,0.0,0.0,83,0.00,,---,0.00,VWS V15.00,2014-01-02 06:41:00,
2014-01-02 00:46:00,-9.4,-13.4,30.51,WSW,256,0.0,0.0,82,0.00,,---,0.00,VWS V15.00,2014-01-02 06:46:00,
2014-01-02 00:51:00,-9.6,-13.3,30.51,WSW,256,0.0,0.0,83,0.00,,---,0.00,VWS V15.00,2014-01-02 06:51:00,
2014-01-02 00:56:00,-9.8,-13.5,30.51,WSW,256,0.0,0.0,83,0.00,,---,0.00,VWS V15.00,2014-01-02 06:56:00,
2014-01-02 01:01:00,-9.9,-13.6,30.52,WSW,256,0.0,0.0,83,0.00,,---,0.00,VWS V15.00,2014-01-02 07:01:00,
2014-01-02 01:06:00,-9.9,-13.6,30.51,WSW,256,0.0,0.0,83,0.00,,---,0.00,VWS V15.00,2014-01-02 07:06:00,
2014-01-02 01:11:00,-10.2,-14.2,30.51,WSW,256,0.0,0.0,82,0.00,,---,0.00,VWS V15.00,2014-01-02 07:11:00,
2014-01-02 01:21:00,-10.7,-14.7,30.51,WSW,256,0.0,0.0,82,0.00,,---,0.00,VWS V15.00,2014-01-02 07:21:00,
2014-01-02 01:26:00,-10.7,-14.7,30.51,WSW,256,0.0,0.0,82,0.00,,---,0.00,VWS V15.00,2014-01-02 07:26:00,
2014-01-02 01:31:00,-10.9,-14.9,30.51,WSW,256,0.0,0.0,82,0.00,,---,0.00,VWS V15.00,2014-01-02 07:31:00,
2014-01-02 01:36:00,-11.3,-15.2,30.51,WSW,256,0.0,0.0,82,0.00,,---,0.00,VWS V15.00,2014-01-02 07:36:00,
2014-01-02 01:41:00,-11.6,-15.5,30.51,WSW,256,0.0,0.0,82,0.00,,---,0.00,VWS V15.00,2014-01-02 07:41:00,
2014-01-02 01:51:00,-11.8,-15.7,30.52,WSW,256,0.0,0.0,82,0.00,,---,0.00,VWS V15.00,2014-01-02 07:51:00,
2014-01-02 01:56:00,-12.1,-16.0,30.52,WSW,256,0.0,0.0,82,0.00,,---,0.00,VWS V15.00,2014-01-02 07:56:00,
2014-01-02 02:01:00,-12.1,-16.0,30.51,WSW,256,0.0,0.0,82,0.00,,---,0.00,VWS V15.00,2014-01-02 08:01:00,
2014-01-02 02:11:00,-12.0,-15.9,30.51,WSW,256,0.0,0.0,82,0.00,,---,0.00,VWS V15.00,2014-01-02 08:11:00,
2014-01-02 02:21:00,-12.7,-16.6,30.52,WSW,256,0.0,0.0,82,0.00,,---,0.00,VWS V15.00,2014-01-02 08:21:00,
2014-01-02 02:31:00,-12.7,-16.6,30.52,WSW,256,0.0,0.0,82,0.00,,---,0.00,VWS V15.00,2014-01-02 08:31:00,
2014-01-02 02:36:00,-12.6,-16.5,30.51,WSW,256,0.0,0.0,82,0.00,,---,0.00,VWS V15.00,2014-01-02 08:36:00,
2014-01-02 02:41:00,-12.7,-16.6,30.52,WSW,256,0.0,0.0,82,0.00,,---,0.00,VWS V15.00,2014-01-02 08:41:00,
2014-01-02 02:46:00,-12.7,-16.6,30.52,WSW,256,0.0,0.0,82,0.00,,---,0.00,VWS V15.00,2014-01-02 08:46:00,
2014-01-02 02:51:00,-13.0,-16.9,30.51,WSW,256,0.0,0.0,82,0.00,,---,0.00,VWS V15.00,2014-01-02 08:51:00,
2014-01-02 02:56:00,-13.3,-17.5,30.51,WSW,256,0.0,0.0,81,0.00,,---,0.00,VWS V15.00,2014-01-02 08:56:00,
2014-01-02 03:06:00,-13.4,-17.5,30.51,WSW,256,0.0,0.0,81,0.00,,---,0.00,VWS V15.00,2014-01-02 09:06:00,
2014-01-02 03:11:00,-13.2,-17.1,30.51,WSW,256,0.0,0.0,82,0.00,,---,0.00,VWS V15.00,2014-01-02 09:11:00,
2014-01-02 03:16:00,-13.4,-17.3,30.51,WSW,256,0.0,0.0,82,0.00,,---,0.00,VWS V15.00,2014-01-02 09:16:00,
2014-01-02 03:21:00,-13.4,-17.3,30.51,WSW,256,0.0,0.0,82,0.00,,---,0.00,VWS V15.00,2014-01-02 09:21:00,
2014-01-02 03:31:00,-13.6,-17.5,30.51,WSW,256,0.0,0.0,82,0.00,,---,0.00,VWS V15.00,2014-01-02 09:31:00,
2014-01-02 03:36:00,-14.0,-18.1,30.51,WSW,256,0.0,0.0,81,0.00,,---,0.00,VWS V15.00,2014-01-02 09:36:00,
2014-01-02 03:41:00,-14.4,-18.5,30.51,WSW,256,0.0,0.0,81,0.00,,---,0.00,VWS V15.00,2014-01-02 09:41:00,
2014-01-02 03:46:00,-14.7,-18.8,30.51,WSW,256,0.0,0.0,81,0.00,,---,0.00,VWS V15.00,2014-01-02 09:46:00,
2014-01-02 03:56:00,-15.3,-19.4,30.51,WSW,256,0.0,0.0,81,0.00,,---,0.00,VWS V15.00,2014-01-02 09:56:00,
2014-01-02 04:01:00,-15.3,-19.4,30.50,WSW,256,0.0,0.0,81,0.00,,---,0.00,VWS V15.00,2014-01-02 10:01:00,
2014-01-02 04:11:00,-15.3,-19.4,30.51,WSW,256,0.0,0.0,81,0.00,,---,0.00,VWS V15.00,2014-01-02 10:11:00,
2014-01-02 04:16:00,-15.2,-19.3,30.51,WSW,256,0.0,0.0,81,0.00,,---,0.00,VWS V15.00,2014-01-02 10:16:00,
2014-01-02 04:26:00,-14.9,-19.0,30.51,WSW,256,0.0,0.0,81,0.00,,---,0.00,VWS V15.00,2014-01-02 10:26:00,
2014-01-02 04:31:00,-14.5,-18.4,30.51,WSW,256,0.0,0.0,82,0.00,,---,0.00,VWS V15.00,2014-01-02 10:31:00,
2014-01-02 04:41:00,-14.6,-18.7,30.50,WSW,256,0.0,0.0,81,0.00,,---,0.00,VWS V15.00,2014-01-02 10:41:00,
2014-01-02 04:51:00,-14.8,-18.9,30.50,WSW,256,0.0,0.0,81,0.00,,---,0.00,VWS V15.00,2014-01-02 10:51:00,
2014-01-02 04:56:00,-15.1,-19.2,30.50,WSW,256,0.0,0.0,81,0.00,,---,0.00,VWS V15.00,2014-01-02 10:56:00,
2014-01-02 05:01:00,-15.6,-19.7,30.50,WSW,256,0.0,0.0,81,0.00,,---,0.00,VWS V15.00,2014-01-02 11:01:00,
2014-01-02 05:06:00,-15.7,-19.8,30.50,WSW,256,0.0,0.0,81,0.00,,---,0.00,VWS V15.00,2014-01-02 11:06:00,
2014-01-02 05:16:00,-16.0,-20.1,30.50,WSW,256,0.0,0.0,81,0.00,,---,0.00,VWS V15.00,2014-01-02 11:16:00,
2014-01-02 05:26:00,-16.0,-20.1,30.50,WSW,256,0.0,0.0,81,0.00,,---,0.00,VWS V15.00,2014-01-02 11:26:00,
2014-01-02 05:31:00,-15.8,-19.9,30.51,WSW,256,0.0,0.0,81,0.00,,---,0.00,VWS V15.00,2014-01-02 11:31:00,
2014-01-02 05:36:00,-15.7,-19.8,30.51,WSW,256,0.0,0.0,81,0.00,,---,0.00,VWS V15.00,2014-01-02 11:36:00,
2014-01-02 05:46:00,-15.9,-20.0,30.51,WSW,256,0.0,0.0,81,0.00,,---,0.00,VWS V15.00,2014-01-02 11:46:00,
2014-01-02 05:51:00,-16.2,-20.5,30.51,WSW,256,0.0,0.0,80,0.00,,---,0.00,VWS V15.00,2014-01-02 11:51:00,
2014-01-02 05:56:00,-16.6,-20.9,30.51,WSW,256,0.0,0.0,80,0.00,,---,0.00,VWS V15.00,2014-01-02 11:56:00,
2014-01-02 06:01:00,-16.6,-20.9,30.52,WSW,256,0.0,0.0,80,0.00,,---,0.00,VWS V15.00,2014-01-02 12:01:00,
2014-01-02 06:06:00,-16.5,-20.8,30.52,WSW,256,0.0,0.0,80,0.00,,---,0.00,VWS V15.00,2014-01-02 12:06:00,
2014-01-02 06:16:00,-15.8,-19.9,30.52,WSW,256,0.0,0.0,81,0.00,,---,0.00,VWS V15.00,2014-01-02 12:16:00,
2014-01-02 06:21:00,-16.3,-20.6,30.52,WSW,256,0.0,0.0,80,0.00,,---,0.00,VWS V15.00,2014-01-02 12:21:00,
2014-01-02 06:31:00,-16.3,-20.4,30.52,WSW,256,0.0,0.0,81,0.00,,---,0.00,VWS V15.00,2014-01-02 12:31:00,
2014-01-02 06:36:00,-16.3,-20.4,30.52,WSW,256,0.0,0.0,81,0.00,,---,0.00,VWS V15.00,2014-01-02 12:36:00,
2014-01-02 06:46:00,-16.3,-20.4,30.52,WSW,256,0.0,0.0,81,0.00,,---,0.00,VWS V15.00,2014-01-02 12:46:00,
2014-01-02 06:51:00,-16.0,-20.1,30.52,WSW,256,0.0,0.0,81,0.00,,---,0.00,VWS V15.00,2014-01-02 12:51:00,
2014-01-02 06:56:00,-15.9,-20.0,30.52,WSW,256,0.0,0.0,81,0.00,,---,0.00,VWS V15.00,2014-01-02 12:56:00,
2014-01-02 07:01:00,-15.8,-19.9,30.52,WSW,256,0.0,0.0,81,0.00,,---,0.00,VWS V15.00,2014-01-02 13:01:00,
2014-01-02 07:06:00,-15.6,-19.7,30.51,WSW,256,0.0,0.0,81,0.00,,---,0.00,VWS V15.00,2014-01-02 13:06:00,
2014-01-02 07:16:00,-15.5,-19.6,30.51,WSW,256,0.0,0.0,81,0.00,,---,0.00,VWS V15.00,2014-01-02 13:16:00,
2014-01-02 07:21:00,-15.0,-18.9,30.51,WSW,256,0.0,0.0,82,0.00,,---,0.00,VWS V15.00,2014-01-02 13:21:00,
2014-01-02 07:31:00,-15.0,-19.1,30.51,WSW,256,0.0,0.0,81,0.00,,---,0.00,VWS V15.00,2014-01-02 13:31:00,
2014-01-02 07:36:00,-14.9,-19.0,30.52,WSW,256,0.0,0.0,81,0.00,,---,0.00,VWS V15.00,2014-01-02 13:36:00,
2014-01-02 07:41:00,-14.5,-18.4,30.52,WSW,256,0.0,0.0,82,0.00,,---,0.00,VWS V15.00,2014-01-02 13:41:00,
2014-01-02 07:46:00,-14.5,-18.6,30.52,WSW,256,0.0,0.0,81,0.00,,---,0.00,VWS V15.00,2014-01-02 13:46:00,
2014-01-02 07:51:00,-15.5,-19.8,30.52,WSW,256,0.0,0.0,80,0.00,,---,0.00,VWS V15.00,2014-01-02 13:51:00,
2014-01-02 07:56:00,-15.9,-20.2,30.52,WSW,256,0.0,0.0,80,0.00,,---,0.00,VWS V15.00,2014-01-02 13:56:00,
2014-01-02 08:01:00,-16.2,-20.5,30.52,WSW,256,0.0,0.0,80,0.00,,---,0.00,VWS V15.00,2014-01-02 14:01:00,
2014-01-02 08:06:00,-16.1,-20.2,30.52,WSW,256,0.0,0.0,81,0.00,,---,0.00,VWS V15.00,2014-01-02 14:06:00,
2014-01-02 08:16:00,-15.6,-19.7,30.53,WSW,256,0.0,0.0,81,0.00,,---,0.00,VWS V15.00,2014-01-02 14:16:00,
2014-01-02 08:21:00,-15.1,-19.2,30.53,WSW,256,0.0,0.0,81,0.00,,---,0.00,VWS V15.00,2014-01-02 14:21:00,
2014-01-02 08:26:00,-15.0,-19.1,30.53,WSW,256,0.0,0.0,81,0.00,,---,0.00,VWS V15.00,2014-01-02 14:26:00,
2014-01-02 08:31:00,-14.7,-18.8,30.53,WSW,256,0.0,0.0,81,0.00,,---,0.00,VWS V15.00,2014-01-02 14:31:00,
2014-01-02 08:41:00,-13.5,-17.4,30.53,WSW,256,0.0,1.0,82,0.00,,---,0.00,VWS V15.00,2014-01-02 14:41:00,
2014-01-02 08:46:00,-12.0,-15.7,30.54,WSW,256,0.0,0.0,83,0.00,,---,0.00,VWS V15.00,2014-01-02 14:46:00,
2014-01-02 08:51:00,-10.3,-14.0,30.54,WSW,256,1.0,1.0,83,0.00,,---,0.00,VWS V15.00,2014-01-02 14:51:00,
2014-01-02 08:56:00,-9.9,-13.6,30.54,WSW,256,0.0,2.0,83,0.00,,---,0.00,VWS V15.00,2014-01-02 14:56:00,
2014-01-02 09:01:00,-9.0,-12.5,30.54,WSW,256,1.0,1.0,84,0.00,,---,0.00,VWS V15.00,2014-01-02 15:01:00,
2014-01-02 09:06:00,-8.0,-11.5,30.54,WSW,256,0.0,2.0,84,0.00,,---,0.00,VWS V15.00,2014-01-02 15:06:00,
2014-01-02 09:11:00,-7.3,-10.8,30.55,WSW,256,0.0,0.0,84,0.00,,---,0.00,VWS V15.00,2014-01-02 15:11:00,
2014-01-02 09:16:00,-6.3,-9.9,30.54,WSW,256,0.0,1.0,84,0.00,,---,0.00,VWS V15.00,2014-01-02 15:16:00,
2014-01-02 09:26:00,-3.4,-6.8,30.55,WSW,247,0.0,0.0,85,0.00,,---,0.00,VWS V15.00,2014-01-02 15:26:00,
2014-01-02 09:36:00,-3.2,-6.8,30.55,WSW,248,1.0,2.0,84,0.00,,---,0.00,VWS V15.00,2014-01-02 15:36:00,
2014-01-02 09:46:00,-3.5,-7.1,30.55,WSW,248,0.0,1.0,84,0.00,,---,0.00,VWS V15.00,2014-01-02 15:46:00,
2014-01-02 09:51:00,-2.7,-6.3,30.55,WSW,248,0.0,0.0,84,0.00,,---,0.00,VWS V15.00,2014-01-02 15:51:00,
2014-01-02 09:56:00,-2.3,-5.9,30.54,WSW,248,0.0,2.0,84,0.00,,---,0.00,VWS V15.00,2014-01-02 15:56:00,
2014-01-02 10:01:00,-2.0,-5.6,30.55,WSW,248,0.0,0.0,84,0.00,,---,0.00,VWS V15.00,2014-01-02 16:01:00,
2014-01-02 10:06:00,-1.7,-5.3,30.55,WSW,248,1.0,2.0,84,0.00,,---,0.00,VWS V15.00,2014-01-02 16:06:00,
2014-01-02 10:11:00,-1.7,-5.3,30.55,WSW,248,0.0,2.0,84,0.00,,---,0.00,VWS V15.00,2014-01-02 16:11:00,
2014-01-02 10:16:00,-1.5,-5.2,30.55,WSW,249,2.0,3.0,84,0.00,,---,0.00,VWS V15.00,2014-01-02 16:16:00,
2014-01-02 10:21:00,-1.4,-5.1,30.55,WSW,255,0.0,3.0,84,0.00,,---,0.00,VWS V15.00,2014-01-02 16:21:00,
2014-01-02 10:31:00,-0.4,-3.8,30.54,West,268,0.0,4.0,85,0.00,,---,0.00,VWS V15.00,2014-01-02 16:31:00,
2014-01-02 10:36:00,0.4,-3.0,30.54,NW,307,1.0,3.0,85,0.00,,---,0.00,VWS V15.00,2014-01-02 16:36:00,
2014-01-02 10:41:00,1.1,-2.6,30.54,NW,307,0.0,2.0,84,0.00,,---,0.00,VWS V15.00,2014-01-02 16:41:00,
2014-01-02 10:46:00,1.7,-2.0,30.54,NW,306,0.0,3.0,84,0.00,,---,0.00,VWS V15.00,2014-01-02 16:46:00,
2014-01-02 10:51:00,2.2,-1.8,30.54,NW,306,0.0,2.0,83,0.00,,---,0.00,VWS V15.00,2014-01-02 16:51:00,
2014-01-02 10:56:00,2.5,-1.5,30.54,NW,306,0.0,0.0,83,0.00,,---,0.00,VWS V15.00,2014-01-02 16:56:00,
2014-01-02 11:01:00,2.8,-1.4,30.53,NW,306,0.0,0.0,82,0.00,,---,0.00,VWS V15.00,2014-01-02 17:01:00,
2014-01-02 11:06:00,2.7,-1.8,30.53,NW,307,0.0,2.0,81,0.00,,---,0.00,VWS V15.00,2014-01-02 17:06:00,
2014-01-02 11:11:00,2.7,-2.0,30.53,NW,309,1.0,3.0,80,0.00,,---,0.00,VWS V15.00,2014-01-02 17:11:00,
2014-01-02 11:21:00,2.6,-2.2,30.53,NW,325,1.0,3.0,80,0.00,,---,0.00,VWS V15.00,2014-01-02 17:21:00,
2014-01-02 11:26:00,2.5,-2.5,30.53,NW,309,0.0,4.0,79,0.00,,---,0.00,VWS V15.00,2014-01-02 17:26:00,
2014-01-02 11:31:00,2.8,-2.0,30.53,NW,314,0.0,2.0,80,0.00,,---,0.00,VWS V15.00,2014-01-02 17:31:00,
2014-01-02 11:36:00,3.0,-2.0,30.53,NW,314,0.0,2.0,79,0.00,,---,0.00,VWS V15.00,2014-01-02 17:36:00,
2014-01-02 11:41:00,3.3,-1.7,30.53,NW,315,0.0,0.0,79,0.00,,---,0.00,VWS V15.00,2014-01-02 17:41:00,
2014-01-02 11:46:00,3.5,-1.8,30.53,NW,316,1.0,2.0,78,0.00,,---,0.00,VWS V15.00,2014-01-02 17:46:00,
2014-01-02 11:51:00,3.4,-1.9,30.53,NW,318,2.0,3.0,78,0.00,,---,0.00,VWS V15.00,2014-01-02 17:51:00,
2014-01-02 11:56:00,3.4,-1.9,30.52,NW,318,0.0,2.0,78,0.00,,---,0.00,VWS V15.00,2014-01-02 17:56:00,
2014-01-02 12:06:00,3.6,-2.0,30.52,NW,315,1.0,3.0,77,0.00,,---,0.00,VWS V15.00,2014-01-02 18:06:00,
2014-01-02 12:16:00,3.8,-1.8,30.52,North,350,0.0,2.0,77,0.00,,---,0.00,VWS V15.00,2014-01-02 18:16:00,
2014-01-02 12:26:00,3.4,-2.7,30.52,WNW,284,0.0,4.0,75,0.00,,---,0.00,VWS V15.00,2014-01-02 18:26:00,
2014-01-02 12:31:00,3.6,-2.3,30.51,WNW,284,0.0,4.0,76,0.00,,---,0.00,VWS V15.00,2014-01-02 18:31:00,
2014-01-02 12:36:00,2.9,-3.2,30.51,West,277,3.0,6.0,75,0.00,,---,0.00,VWS V15.00,2014-01-02 18:36:00,
2014-01-02 12:41:00,2.7,-3.1,30.52,WNW,287,4.0,7.0,76,0.00,,---,0.00,VWS V15.00,2014-01-02 18:41:00,
2014-01-02 12:46:00,2.4,-3.4,30.51,WNW,284,5.0,9.0,76,0.00,,---,0.00,VWS V15.00,2014-01-02 18:46:00,
2014-01-02 12:51:00,2.4,-3.4,30.52,West,267,3.0,6.0,76,0.00,,---,0.00,VWS V15.00,2014-01-02 18:51:00,
2014-01-02 12:56:00,2.6,-3.2,30.52,West,269,6.0,6.0,76,0.00,,---,0.00,VWS V15.00,2014-01-02 18:56:00,
2014-01-02 13:06:00,3.1,-2.7,30.52,NW,306,0.0,5.0,76,0.00,,---,0.00,VWS V15.00,2014-01-02 19:06:00,
2014-01-02 13:11:00,3.5,-2.6,30.52,WNW,282,0.0,5.0,75,0.00,,---,0.00,VWS V15.00,2014-01-02 19:11:00,
2014-01-02 13:16:00,3.7,-2.7,30.52,West,279,0.0,4.0,74,0.00,,---,0.00,VWS V15.00,2014-01-02 19:16:00,
2014-01-02 13:21:00,3.6,-3.1,30.52,WNW,287,1.0,7.0,73,0.00,,---,0.00,VWS V15.00,2014-01-02 19:21:00,
2014-01-02 13:26:00,3.7,-2.7,30.52,WNW,286,0.0,4.0,74,0.00,,---,0.00,VWS V15.00,2014-01-02 19:26:00,
2014-01-02 13:31:00,3.6,-3.1,30.52,WNW,288,3.0,6.0,73,0.00,,---,0.00,VWS V15.00,2014-01-02 19:31:00,
2014-01-02 13:36:00,3.3,-3.4,30.51,WNW,287,6.0,6.0,73,0.00,,---,0.00,VWS V15.00,2014-01-02 19:36:00,
2014-01-02 13:41:00,3.1,-3.6,30.52,West,278,3.0,6.0,73,0.00,,---,0.00,VWS V15.00,2014-01-02 19:41:00,
2014-01-02 13:46:00,3.0,-3.7,30.51,WNW,291,4.0,6.0,73,0.00,,---,0.00,VWS V15.00,2014-01-02 19:46:00,
2014-01-02 13:51:00,3.1,-3.3,30.51,WNW,284,0.0,7.0,74,0.00,,---,0.00,VWS V15.00,2014-01-02 19:51:00,
2014-01-02 13:56:00,3.6,-2.8,30.51,WNW,284,0.0,3.0,74,0.00,,---,0.00,VWS V15.00,2014-01-02 19:56:00,
2014-01-02 14:06:00,4.0,-2.4,30.51,WNW,292,0.0,3.0,74,0.00,,---,0.00,VWS V15.00,2014-01-02 20:06:00,
2014-01-02 14:11:00,4.1,-2.6,30.51,WNW,293,2.0,4.0,73,0.00,,---,0.00,VWS V15.00,2014-01-02 20:11:00,
2014-01-02 14:16:00,4.1,-2.3,30.51,WNW,286,0.0,5.0,74,0.00,,---,0.00,VWS V15.00,2014-01-02 20:16:00,
2014-01-02 14:21:00,4.2,-2.2,30.51,WNW,287,0.0,4.0,74,0.00,,---,0.00,VWS V15.00,2014-01-02 20:21:00,
2014-01-02 14:26:00,4.5,-1.9,30.51,NNW,346,2.0,3.0,74,0.00,,---,0.00,VWS V15.00,2014-01-02 20:26:00,
2014-01-02 14:31:00,4.5,-1.9,30.51,NNW,346,0.0,3.0,74,0.00,,---,0.00,VWS V15.00,2014-01-02 20:31:00,
2014-01-02 14:36:00,4.4,-2.0,30.52,WNW,284,3.0,4.0,74,0.00,,---,0.00,VWS V15.00,2014-01-02 20:36:00,
2014-01-02 14:41:00,4.4,-2.0,30.52,WNW,299,0.0,4.0,74,0.00,,---,0.00,VWS V15.00,2014-01-02 20:41:00,
2014-01-02 14:51:00,4.1,-2.3,30.52,North,355,0.0,3.0,74,0.00,,---,0.00,VWS V15.00,2014-01-02 20:51:00,
2014-01-02 15:01:00,4.3,-1.9,30.52,North,351,0.0,2.0,75,0.00,,---,0.00,VWS V15.00,2014-01-02 21:01:00,
2014-01-02 15:11:00,4.4,-1.8,30.51,NW,307,0.0,0.0,75,0.00,,---,0.00,VWS V15.00,2014-01-02 21:11:00,
2014-01-02 15:16:00,4.5,-1.9,30.52,NW,307,0.0,1.0,74,0.00,,---,0.00,VWS V15.00,2014-01-02 21:16:00,
2014-01-02 15:21:00,4.5,-1.9,30.52,NW,307,0.0,2.0,74,0.00,,---,0.00,VWS V15.00,2014-01-02 21:21:00,
2014-01-02 15:31:00,4.5,-2.2,30.52,NW,307,0.0,2.0,73,0.00,,---,0.00,VWS V15.00,2014-01-02 21:31:00,
2014-01-02 15:36:00,4.5,-2.2,30.52,NW,307,0.0,0.0,73,0.00,,---,0.00,VWS V15.00,2014-01-02 21:36:00,
2014-01-02 15:41:00,4.0,-2.7,30.51,NW,307,0.0,0.0,73,0.00,,---,0.00,VWS V15.00,2014-01-02 21:41:00,
2014-01-02 15:46:00,3.9,-2.8,30.52,NW,308,0.0,0.0,73,0.00,,---,0.00,VWS V15.00,2014-01-02 21:46:00,
2014-01-02 15:51:00,3.8,-2.6,30.53,NW,306,0.0,1.0,74,0.00,,---,0.00,VWS V15.00,2014-01-02 21:51:00,
2014-01-02 15:56:00,3.8,-2.9,30.52,NW,306,0.0,0.0,73,0.00,,---,0.00,VWS V15.00,2014-01-02 21:56:00,
2014-01-02 16:06:00,3.3,-3.4,30.52,NW,317,0.0,0.0,73,0.00,,---,0.00,VWS V15.00,2014-01-02 22:06:00,
2014-01-02 16:11:00,2.4,-4.3,30.52,NW,317,0.0,0.0,73,0.00,,---,0.00,VWS V15.00,2014-01-02 22:11:00,
2014-01-02 16:16:00,0.9,-5.4,30.51,NW,317,0.0,0.0,74,0.00,,---,0.00,VWS V15.00,2014-01-02 22:16:00,
2014-01-02 16:21:00,-0.3,-6.0,30.52,NW,317,0.0,0.0,76,0.00,,---,0.00,VWS V15.00,2014-01-02 22:21:00,
2014-01-02 16:26:00,-1.3,-6.8,30.51,NW,317,0.0,0.0,77,0.00,,---,0.00,VWS V15.00,2014-01-02 22:26:00,
2014-01-02 16:31:00,-2.0,-7.2,30.51,NW,317,0.0,0.0,78,0.00,,---,0.00,VWS V15.00,2014-01-02 22:31:00,
2014-01-02 16:36:00,-2.7,-7.6,30.51,NW,317,0.0,0.0,79,0.00,,---,0.00,VWS V15.00,2014-01-02 22:36:00,
2014-01-02 16:41:00,-3.3,-7.9,30.52,NW,317,0.0,0.0,80,0.00,,---,0.00,VWS V15.00,2014-01-02 22:41:00,
2014-01-02 16:51:00,-4.6,-9.2,30.51,NW,317,0.0,0.0,80,0.00,,---,0.00,VWS V15.00,2014-01-02 22:51:00,
2014-01-02 16:56:00,-5.0,-9.3,30.52,NW,317,0.0,0.0,81,0.00,,---,0.00,VWS V15.00,2014-01-02 22:56:00,
2014-01-02 17:01:00,-5.5,-9.8,30.52,NW,317,0.0,0.0,81,0.00,,---,0.00,VWS V15.00,2014-01-02 23:01:00,
2014-01-02 17:06:00,-5.9,-10.2,30.52,NW,317,0.0,0.0,81,0.00,,---,0.00,VWS V15.00,2014-01-02 23:06:00,
2014-01-02 17:11:00,-6.4,-10.7,30.52,NW,317,0.0,0.0,81,0.00,,---,0.00,VWS V15.00,2014-01-02 23:11:00,
2014-01-02 17:21:00,-7.0,-11.0,30.52,NW,317,0.0,0.0,82,0.00,,---,0.00,VWS V15.00,2014-01-02 23:21:00,
2014-01-02 17:26:00,-7.3,-11.3,30.52,NW,317,0.0,0.0,82,0.00,,---,0.00,VWS V15.00,2014-01-02 23:26:00,
2014-01-02 17:31:00,-7.7,-12.0,30.52,NW,317,0.0,0.0,81,0.00,,---,0.00,VWS V15.00,2014-01-02 23:31:00,
2014-01-02 17:36:00,-7.9,-11.9,30.52,NW,317,0.0,0.0,82,0.00,,---,0.00,VWS V15.00,2014-01-02 23:36:00,
2014-01-02 17:41:00,-8.2,-12.5,30.51,NW,317,0.0,0.0,81,0.00,,---,0.00,VWS V15.00,2014-01-02 23:41:00,
2014-01-02 17:51:00,-8.7,-12.7,30.51,NW,317,0.0,0.0,82,0.00,,---,0.00,VWS V15.00,2014-01-02 23:51:00,
2014-01-02 17:56:00,-9.0,-13.0,30.51,NW,317,0.0,0.0,82,0.00,,---,0.00,VWS V15.00,2014-01-02 23:56:00,
2014-01-02 18:06:00,-9.4,-13.4,30.51,NW,317,0.0,0.0,82,0.00,,---,0.00,VWS V15.00,2014-01-03 00:06:00,
2014-01-02 18:11:00,-9.8,-13.8,30.51,NW,317,0.0,0.0,82,0.00,,---,0.00,VWS V15.00,2014-01-03 00:11:00,
2014-01-02 18:16:00,-9.9,-13.9,30.51,NW,317,0.0,0.0,82,0.00,,---,0.00,VWS V15.00,2014-01-03 00:16:00,
2014-01-02 18:21:00,-10.1,-14.1,30.50,NW,317,0.0,0.0,82,0.00,,---,0.00,VWS V15.00,2014-01-03 00:21:00,
2014-01-02 18:26:00,-10.2,-14.2,30.51,NW,317,0.0,0.0,82,0.00,,---,0.00,VWS V15.00,2014-01-03 00:26:00,
2014-01-02 18:31:00,-10.3,-14.3,30.50,NW,317,0.0,0.0,82,0.00,,---,0.00,VWS V15.00,2014-01-03 00:31:00,
2014-01-02 18:36:00,-10.4,-14.4,30.51,NW,317,0.0,0.0,82,0.00,,---,0.00,VWS V15.00,2014-01-03 00:36:00,
2014-01-02 18:41:00,-10.6,-14.6,30.51,NW,317,0.0,0.0,82,0.00,,---,0.00,VWS V15.00,2014-01-03 00:41:00,
2014-01-02 18:51:00,-11.1,-15.1,30.51,NW,317,0.0,0.0,82,0.00,,---,0.00,VWS V15.00,2014-01-03 00:51:00,
2014-01-02 18:56:00,-11.4,-15.6,30.51,NW,317,0.0,0.0,81,0.00,,---,0.00,VWS V15.00,2014-01-03 00:56:00,
2014-01-02 19:01:00,-11.6,-15.5,30.52,NW,317,0.0,0.0,82,0.00,,---,0.00,VWS V15.00,2014-01-03 01:01:00,
2014-01-02 19:06:00,-11.8,-16.0,30.52,NW,317,0.0,0.0,81,0.00,,---,0.00,VWS V15.00,2014-01-03 01:06:00,
2014-01-02 19:16:00,-12.2,-16.4,30.51,NW,317,0.0,0.0,81,0.00,,---,0.00,VWS V15.00,2014-01-03 01:16:00,
2014-01-02 19:21:00,-12.4,-16.6,30.51,NW,317,0.0,0.0,81,0.00,,---,0.00,VWS V15.00,2014-01-03 01:21:00,
2014-01-02 19:26:00,-12.3,-16.5,30.51,NW,317,0.0,0.0,81,0.00,,---,0.00,VWS V15.00,2014-01-03 01:26:00,
2014-01-02 19:36:00,-12.4,-16.6,30.51,NW,317,0.0,0.0,81,0.00,,---,0.00,VWS V15.00,2014-01-03 01:36:00,
2014-01-02 19:41:00,-12.5,-16.7,30.51,NW,317,0.0,0.0,81,0.00,,---,0.00,VWS V15.00,2014-01-03 01:41:00,
2014-01-02 19:46:00,-12.7,-16.9,30.51,NW,317,0.0,0.0,81,0.00,,---,0.00,VWS V15.00,2014-01-03 01:46:00,
2014-01-02 19:51:00,-12.6,-16.5,30.51,NW,317,0.0,0.0,82,0.00,,---,0.00,VWS V15.00,2014-01-03 01:51:00,
2014-01-02 19:56:00,-12.7,-16.6,30.51,NW,317,0.0,0.0,82,0.00,,---,0.00,VWS V15.00,2014-01-03 01:56:00,
2014-01-02 20:01:00,-12.8,-17.0,30.51,NW,317,0.0,0.0,81,0.00,,---,0.00,VWS V15.00,2014-01-03 02:01:00,
2014-01-02 20:06:00,-12.9,-16.8,30.50,NW,317,0.0,0.0,82,0.00,,---,0.00,VWS V15.00,2014-01-03 02:06:00,
2014-01-02 20:11:00,-13.0,-17.1,30.50,NW,317,0.0,0.0,81,0.00,,---,0.00,VWS V15.00,2014-01-03 02:11:00,
2014-01-02 20:21:00,-13.3,-17.5,30.50,NW,317,0.0,0.0,81,0.00,,---,0.00,VWS V15.00,2014-01-03 02:21:00,
2014-01-02 20:26:00,-13.6,-17.7,30.50,NW,317,0.0,0.0,81,0.00,,---,0.00,VWS V15.00,2014-01-03 02:26:00,
2014-01-02 20:31:00,-13.9,-18.0,30.50,NW,317,0.0,0.0,81,0.00,,---,0.00,VWS V15.00,2014-01-03 02:31:00,
2014-01-02 20:36:00,-13.8,-17.9,30.51,NW,317,0.0,0.0,81,0.00,,---,0.00,VWS V15.00,2014-01-03 02:36:00,
2014-01-02 20:41:00,-14.0,-18.1,30.50,NW,317,0.0,0.0,81,0.00,,---,0.00,VWS V15.00,2014-01-03 02:41:00,
2014-01-02 20:46:00,-14.2,-18.3,30.51,NW,317,0.0,0.0,81,0.00,,---,0.00,VWS V15.00,2014-01-03 02:46:00,
2014-01-02 20:51:00,-14.4,-18.5,30.51,NW,317,0.0,0.0,81,0.00,,---,0.00,VWS V15.00,2014-01-03 02:51:00,
2014-01-02 20:56:00,-14.7,-18.8,30.50,NW,317,0.0,0.0,81,0.00,,---,0.00,VWS V15.00,2014-01-03 02:56:00,
2014-01-02 21:06:00,-14.7,-18.8,30.50,NW,317,0.0,0.0,81,0.00,,---,0.00,VWS V15.00,2014-01-03 03:06:00,
2014-01-02 21:11:00,-14.8,-18.9,30.50,NW,317,0.0,0.0,81,0.00,,---,0.00,VWS V15.00,2014-01-03 03:11:00,
2014-01-02 21:16:00,-15.0,-19.1,30.50,NW,317,0.0,0.0,81,0.00,,---,0.00,VWS V15.00,2014-01-03 03:16:00,
2014-01-02 21:26:00,-14.9,-19.0,30.49,NW,317,0.0,2.0,81,0.00,,---,0.00,VWS V15.00,2014-01-03 03:26:00,
2014-01-02 21:36:00,-14.6,-18.7,30.49,West,268,0.0,1.0,81,0.00,,---,0.00,VWS V15.00,2014-01-03 03:36:00,
2014-01-02 21:41:00,-14.6,-18.7,30.49,West,269,0.0,0.0,81,0.00,,---,0.00,VWS V15.00,2014-01-03 03:41:00,
2014-01-02 21:46:00,-14.7,-18.8,30.49,West,268,0.0,1.0,81,0.00,,---,0.00,VWS V15.00,2014-01-03 03:46:00,
2014-01-02 21:56:00,-14.9,-19.0,30.49,West,269,0.0,0.0,81,0.00,,---,0.00,VWS V15.00,2014-01-03 03:56:00,
2014-01-02 22:01:00,-15.0,-19.1,30.48,West,269,0.0,1.0,81,0.00,,---,0.00,VWS V15.00,2014-01-03 04:01:00,
2014-01-02 22:06:00,-15.2,-19.3,30.48,West,269,0.0,2.0,81,0.00,,---,0.00,VWS V15.00,2014-01-03 04:06:00,
2014-01-02 22:16:00,-15.2,-19.3,30.47,SW,219,1.0,2.0,81,0.00,,---,0.00,VWS V15.00,2014-01-03 04:16:00,
2014-01-02 22:21:00,-15.3,-19.4,30.48,SW,219,0.0,2.0,81,0.00,,---,0.00,VWS V15.00,2014-01-03 04:21:00,
2014-01-02 22:26:00,-15.0,-19.1,30.48,SW,218,1.0,1.0,81,0.00,,---,0.00,VWS V15.00,2014-01-03 04:26:00,
2014-01-02 22:31:00,-14.7,-18.8,30.48,SW,219,0.0,1.0,81,0.00,,---,0.00,VWS V15.00,2014-01-03 04:31:00,
2014-01-02 22:36:00,-14.8,-18.9,30.47,SW,219,0.0,1.0,81,0.00,,---,0.00,VWS V15.00,2014-01-03 04:36:00,
2014-01-02 22:46:00,-15.3,-19.4,30.48,SW,218,2.0,2.0,81,0.00,,---,0.00,VWS V15.00,2014-01-03 04:46:00,
2014-01-02 22:56:00,-14.6,-18.7,30.48,South,190,1.0,3.0,81,0.00,,---,0.00,VWS V15.00,2014-01-03 04:56:00,
2014-01-02 23:01:00,-14.5,-18.6,30.47,South,190,0.0,2.0,81,0.00,,---,0.00,VWS V15.00,2014-01-03 05:01:00,
2014-01-02 23:06:00,-14.1,-18.2,30.47,South,191,1.0,2.0,81,0.00,,---,0.00,VWS V15.00,2014-01-03 05:06:00,
2014-01-02 23:11:00,-13.6,-17.7,30.47,South,191,1.0,2.0,81,0.00,,---,0.00,VWS V15.00,2014-01-03 05:11:00,
2014-01-02 23:16:00,-13.0,-17.1,30.46,South,191,1.0,2.0,81,0.00,,---,0.00,VWS V15.00,2014-01-03 05:16:00,
2014-01-02 23:21:00,-13.0,-17.1,30.46,South,191,1.0,3.0,81,0.00,,---,0.00,VWS V15.00,2014-01-03 05:21:00,
2014-01-02 23:31:00,-12.5,-16.9,30.46,South,188,1.0,4.0,80,0.00,,---,0.00,VWS V15.00,2014-01-03 05:31:00,
2014-01-02 23:36:00,-12.6,-17.0,30.45,South,188,0.0,1.0,80,0.00,,---,0.00,VWS V15.00,2014-01-03 05:36:00,
2014-01-02 23:46:00,-13.3,-17.7,30.45,South,187,0.0,1.0,80,0.00,,---,0.00,VWS V15.00,2014-01-03 05:46:00,
2014-01-02 23:56:00,-13.6,-18.2,30.45,South,184,0.0,2.0,79,0.00,,---,0.00,VWS V15.00,2014-01-03 05:56:00,